sensor_id;sensor_type;location;lat;lon;timestamp;P1;durP1;ratioP1;P2;durP2;ratioP2
66927;SDS011;59882;45.624;11.698;2023-02-28T00:00:15;10.68;;;5.93;;
66927;SDS011;59882;45.624;11.698;2023-02-28T00:02:41;13.00;;;5.70;;
66927;SDS011;59882;45.624;11.698;2023-02-28T00:05:08;11.25;;;5.47;;
66927;SDS011;59882;45.624;11.698;2023-02-28T00:07:38;9.35;;;5.28;;
66927;SDS011;59882;45.624;11.698;2023-02-28T00:10:06;8.77;;;4.80;;
66927;SDS011;59882;45.624;11.698;2023-02-28T00:12:34;9.40;;;5.18;;
66927;SDS011;59882;45.624;11.698;2023-02-28T00:15:01;10.27;;;4.78;;
66927;SDS011;59882;45.624;11.698;2023-02-28T00:17:27;9.80;;;5.20;;
66927;SDS011;59882;45.624;11.698;2023-02-28T00:19:53;9.80;;;4.88;;
66927;SDS011;59882;45.624;11.698;2023-02-28T00:22:19;9.37;;;5.03;;
66927;SDS011;59882;45.624;11.698;2023-02-28T00:24:46;8.48;;;5.38;;
66927;SDS011;59882;45.624;11.698;2023-02-28T00:27:12;9.63;;;5.13;;
66927;SDS011;59882;45.624;11.698;2023-02-28T00:29:39;9.27;;;5.15;;
66927;SDS011;59882;45.624;11.698;2023-02-28T00:32:04;8.83;;;4.70;;
66927;SDS011;59882;45.624;11.698;2023-02-28T00:34:31;15.30;;;5.88;;
66927;SDS011;59882;45.624;11.698;2023-02-28T00:37:05;10.02;;;5.07;;
66927;SDS011;59882;45.624;11.698;2023-02-28T00:39:33;11.27;;;5.60;;
66927;SDS011;59882;45.624;11.698;2023-02-28T00:42:00;11.77;;;5.73;;
66927;SDS011;59882;45.624;11.698;2023-02-28T00:44:26;9.63;;;5.07;;
66927;SDS011;59882;45.624;11.698;2023-02-28T00:46:51;9.37;;;4.90;;
66927;SDS011;59882;45.624;11.698;2023-02-28T00:49:19;9.07;;;4.82;;
66927;SDS011;59882;45.624;11.698;2023-02-28T00:51:45;10.82;;;5.32;;
66927;SDS011;59882;45.624;11.698;2023-02-28T00:54:11;11.82;;;5.30;;
66927;SDS011;59882;45.624;11.698;2023-02-28T00:56:36;7.90;;;5.07;;
66927;SDS011;59882;45.624;11.698;2023-02-28T00:59:02;9.60;;;5.57;;
66927;SDS011;59882;45.624;11.698;2023-02-28T01:01:28;10.40;;;5.30;;
66927;SDS011;59882;45.624;11.698;2023-02-28T01:03:53;8.43;;;5.17;;
66927;SDS011;59882;45.624;11.698;2023-02-28T01:06:19;9.50;;;5.00;;
66927;SDS011;59882;45.624;11.698;2023-02-28T01:08:45;8.03;;;4.80;;
66927;SDS011;59882;45.624;11.698;2023-02-28T01:11:11;10.70;;;4.45;;
66927;SDS011;59882;45.624;11.698;2023-02-28T01:13:38;9.98;;;5.22;;
66927;SDS011;59882;45.624;11.698;2023-02-28T01:16:03;9.77;;;5.00;;
66927;SDS011;59882;45.624;11.698;2023-02-28T01:18:30;9.63;;;5.65;;
66927;SDS011;59882;45.624;11.698;2023-02-28T01:20:56;7.70;;;4.32;;
66927;SDS011;59882;45.624;11.698;2023-02-28T01:23:22;12.80;;;5.27;;
66927;SDS011;59882;45.624;11.698;2023-02-28T01:25:48;8.65;;;5.00;;
66927;SDS011;59882;45.624;11.698;2023-02-28T01:28:15;9.98;;;5.28;;
66927;SDS011;59882;45.624;11.698;2023-02-28T01:30:40;9.13;;;5.10;;
66927;SDS011;59882;45.624;11.698;2023-02-28T01:33:06;10.17;;;4.90;;
66927;SDS011;59882;45.624;11.698;2023-02-28T01:35:32;10.35;;;5.80;;
66927;SDS011;59882;45.624;11.698;2023-02-28T01:37:59;11.98;;;5.55;;
66927;SDS011;59882;45.624;11.698;2023-02-28T01:40:24;10.70;;;5.70;;
66927;SDS011;59882;45.624;11.698;2023-02-28T01:42:50;9.82;;;5.05;;
66927;SDS011;59882;45.624;11.698;2023-02-28T01:45:26;10.23;;;6.10;;
66927;SDS011;59882;45.624;11.698;2023-02-28T01:47:52;12.38;;;7.32;;
66927;SDS011;59882;45.624;11.698;2023-02-28T01:50:23;10.75;;;5.95;;
66927;SDS011;59882;45.624;11.698;2023-02-28T01:52:51;10.60;;;5.30;;
66927;SDS011;59882;45.624;11.698;2023-02-28T01:55:20;10.40;;;5.70;;
66927;SDS011;59882;45.624;11.698;2023-02-28T01:57:49;10.82;;;5.47;;
66927;SDS011;59882;45.624;11.698;2023-02-28T02:00:20;10.13;;;5.43;;
66927;SDS011;59882;45.624;11.698;2023-02-28T02:02:50;8.93;;;5.20;;
66927;SDS011;59882;45.624;11.698;2023-02-28T02:05:28;9.37;;;4.73;;
66927;SDS011;59882;45.624;11.698;2023-02-28T02:08:03;10.23;;;5.30;;
66927;SDS011;59882;45.624;11.698;2023-02-28T02:10:35;9.68;;;5.45;;
66927;SDS011;59882;45.624;11.698;2023-02-28T02:18:22;8.47;;;4.53;;
66927;SDS011;59882;45.624;11.698;2023-02-28T02:34:52;8.88;;;5.18;;
66927;SDS011;59882;45.624;11.698;2023-02-28T02:40:18;11.65;;;5.43;;
66927;SDS011;59882;45.624;11.698;2023-02-28T02:45:28;9.07;;;4.93;;
66927;SDS011;59882;45.624;11.698;2023-02-28T02:48:01;11.15;;;5.70;;
66927;SDS011;59882;45.624;11.698;2023-02-28T02:50:38;11.73;;;5.40;;
66927;SDS011;59882;45.624;11.698;2023-02-28T02:53:07;10.10;;;5.38;;
66927;SDS011;59882;45.624;11.698;2023-02-28T02:55:36;10.15;;;5.30;;
66927;SDS011;59882;45.624;11.698;2023-02-28T02:58:07;11.10;;;5.60;;
66927;SDS011;59882;45.624;11.698;2023-02-28T03:00:40;10.13;;;5.03;;
66927;SDS011;59882;45.624;11.698;2023-02-28T03:03:08;9.73;;;5.63;;
66927;SDS011;59882;45.624;11.698;2023-02-28T03:05:39;9.98;;;5.47;;
66927;SDS011;59882;45.624;11.698;2023-02-28T03:08:09;9.55;;;5.30;;
66927;SDS011;59882;45.624;11.698;2023-02-28T03:10:40;9.33;;;5.10;;
66927;SDS011;59882;45.624;11.698;2023-02-28T03:16:02;10.27;;;4.72;;
66927;SDS011;59882;45.624;11.698;2023-02-28T03:19:15;8.70;;;4.70;;
66927;SDS011;59882;45.624;11.698;2023-02-28T03:21:43;9.70;;;4.68;;
66927;SDS011;59882;45.624;11.698;2023-02-28T03:26:58;9.73;;;4.53;;
66927;SDS011;59882;45.624;11.698;2023-02-28T03:29:37;8.43;;;4.82;;
66927;SDS011;59882;45.624;11.698;2023-02-28T03:32:11;8.70;;;4.80;;
66927;SDS011;59882;45.624;11.698;2023-02-28T03:34:48;9.07;;;4.63;;
66927;SDS011;59882;45.624;11.698;2023-02-28T03:37:29;8.70;;;4.40;;
66927;SDS011;59882;45.624;11.698;2023-02-28T03:40:01;9.52;;;4.85;;
66927;SDS011;59882;45.624;11.698;2023-02-28T03:42:57;10.52;;;4.55;;
66927;SDS011;59882;45.624;11.698;2023-02-28T03:45:28;8.90;;;4.88;;
66927;SDS011;59882;45.624;11.698;2023-02-28T03:48:07;10.20;;;5.00;;
66927;SDS011;59882;45.624;11.698;2023-02-28T03:50:41;8.53;;;4.73;;
66927;SDS011;59882;45.624;11.698;2023-02-28T03:55:58;9.70;;;5.15;;
66927;SDS011;59882;45.624;11.698;2023-02-28T04:01:23;11.82;;;5.00;;
66927;SDS011;59882;45.624;11.698;2023-02-28T04:03:56;10.83;;;4.37;;
66927;SDS011;59882;45.624;11.698;2023-02-28T04:06:23;11.23;;;5.20;;
66927;SDS011;59882;45.624;11.698;2023-02-28T04:08:49;10.00;;;5.25;;
66927;SDS011;59882;45.624;11.698;2023-02-28T04:14:04;9.25;;;4.97;;
66927;SDS011;59882;45.624;11.698;2023-02-28T04:16:31;9.50;;;4.43;;
66927;SDS011;59882;45.624;11.698;2023-02-28T04:18:57;9.30;;;4.53;;
66927;SDS011;59882;45.624;11.698;2023-02-28T04:21:48;10.45;;;5.20;;
66927;SDS011;59882;45.624;11.698;2023-02-28T04:24:26;8.77;;;4.77;;
66927;SDS011;59882;45.624;11.698;2023-02-28T04:26:53;11.02;;;4.63;;
66927;SDS011;59882;45.624;11.698;2023-02-28T04:29:30;10.40;;;4.47;;
66927;SDS011;59882;45.624;11.698;2023-02-28T04:31:57;9.32;;;4.53;;
66927;SDS011;59882;45.624;11.698;2023-02-28T04:34:24;9.43;;;4.20;;
66927;SDS011;59882;45.624;11.698;2023-02-28T04:36:55;9.10;;;4.90;;
66927;SDS011;59882;45.624;11.698;2023-02-28T04:39:21;12.10;;;5.25;;
66927;SDS011;59882;45.624;11.698;2023-02-28T04:41:48;9.38;;;4.88;;
66927;SDS011;59882;45.624;11.698;2023-02-28T04:44:14;11.50;;;4.95;;
66927;SDS011;59882;45.624;11.698;2023-02-28T04:46:41;8.90;;;5.05;;
66927;SDS011;59882;45.624;11.698;2023-02-28T04:49:08;10.60;;;5.00;;
66927;SDS011;59882;45.624;11.698;2023-02-28T04:51:35;7.50;;;4.20;;
66927;SDS011;59882;45.624;11.698;2023-02-28T04:54:01;9.48;;;5.10;;
66927;SDS011;59882;45.624;11.698;2023-02-28T04:56:27;8.83;;;4.80;;
66927;SDS011;59882;45.624;11.698;2023-02-28T04:58:52;9.20;;;5.20;;
66927;SDS011;59882;45.624;11.698;2023-02-28T05:01:23;8.27;;;4.50;;
66927;SDS011;59882;45.624;11.698;2023-02-28T05:03:51;9.43;;;4.93;;
66927;SDS011;59882;45.624;11.698;2023-02-28T05:06:18;11.15;;;4.97;;
66927;SDS011;59882;45.624;11.698;2023-02-28T05:08:45;9.02;;;5.22;;
66927;SDS011;59882;45.624;11.698;2023-02-28T05:11:29;9.43;;;5.13;;
66927;SDS011;59882;45.624;11.698;2023-02-28T05:14:00;10.47;;;5.00;;
66927;SDS011;59882;45.624;11.698;2023-02-28T05:16:27;10.73;;;5.60;;
66927;SDS011;59882;45.624;11.698;2023-02-28T05:18:52;12.07;;;5.25;;
66927;SDS011;59882;45.624;11.698;2023-02-28T05:21:32;10.73;;;5.53;;
66927;SDS011;59882;45.624;11.698;2023-02-28T05:24:07;10.27;;;5.60;;
66927;SDS011;59882;45.624;11.698;2023-02-28T05:26:37;11.55;;;5.45;;
66927;SDS011;59882;45.624;11.698;2023-02-28T05:29:05;11.57;;;5.57;;
66927;SDS011;59882;45.624;11.698;2023-02-28T05:31:30;10.70;;;5.67;;
66927;SDS011;59882;45.624;11.698;2023-02-28T05:33:56;9.48;;;5.28;;
66927;SDS011;59882;45.624;11.698;2023-02-28T05:36:22;10.80;;;5.50;;
66927;SDS011;59882;45.624;11.698;2023-02-28T05:38:48;9.38;;;5.30;;
66927;SDS011;59882;45.624;11.698;2023-02-28T05:41:14;9.52;;;5.53;;
66927;SDS011;59882;45.624;11.698;2023-02-28T05:43:40;13.30;;;6.05;;
66927;SDS011;59882;45.624;11.698;2023-02-28T05:46:07;13.23;;;6.13;;
66927;SDS011;59882;45.624;11.698;2023-02-28T05:48:35;11.13;;;5.80;;
66927;SDS011;59882;45.624;11.698;2023-02-28T05:51:02;11.93;;;6.30;;
66927;SDS011;59882;45.624;11.698;2023-02-28T05:53:28;11.67;;;6.17;;
66927;SDS011;59882;45.624;11.698;2023-02-28T05:55:54;13.38;;;5.45;;
66927;SDS011;59882;45.624;11.698;2023-02-28T05:58:20;10.52;;;5.85;;
66927;SDS011;59882;45.624;11.698;2023-02-28T06:00:46;12.82;;;6.00;;
66927;SDS011;59882;45.624;11.698;2023-02-28T06:03:12;11.73;;;5.13;;
66927;SDS011;59882;45.624;11.698;2023-02-28T06:05:37;10.57;;;5.90;;
66927;SDS011;59882;45.624;11.698;2023-02-28T06:08:03;11.57;;;5.77;;
66927;SDS011;59882;45.624;11.698;2023-02-28T06:10:32;10.90;;;5.85;;
66927;SDS011;59882;45.624;11.698;2023-02-28T06:13:01;12.13;;;5.90;;
66927;SDS011;59882;45.624;11.698;2023-02-28T06:15:28;11.55;;;5.97;;
66927;SDS011;59882;45.624;11.698;2023-02-28T06:17:54;14.70;;;7.70;;
66927;SDS011;59882;45.624;11.698;2023-02-28T06:20:21;12.02;;;7.05;;
66927;SDS011;59882;45.624;11.698;2023-02-28T06:22:48;14.20;;;8.30;;
66927;SDS011;59882;45.624;11.698;2023-02-28T06:25:15;15.55;;;8.38;;
66927;SDS011;59882;45.624;11.698;2023-02-28T06:27:41;17.87;;;8.13;;
66927;SDS011;59882;45.624;11.698;2023-02-28T06:30:07;15.75;;;7.72;;
66927;SDS011;59882;45.624;11.698;2023-02-28T06:32:33;14.02;;;8.18;;
66927;SDS011;59882;45.624;11.698;2023-02-28T06:34:59;16.98;;;7.43;;
66927;SDS011;59882;45.624;11.698;2023-02-28T06:37:24;16.20;;;7.77;;
66927;SDS011;59882;45.624;11.698;2023-02-28T06:39:51;12.60;;;7.47;;
66927;SDS011;59882;45.624;11.698;2023-02-28T06:42:17;13.70;;;7.68;;
66927;SDS011;59882;45.624;11.698;2023-02-28T06:44:58;17.00;;;7.80;;
66927;SDS011;59882;45.624;11.698;2023-02-28T06:47:28;18.17;;;7.63;;
66927;SDS011;59882;45.624;11.698;2023-02-28T06:49:55;13.95;;;7.63;;
66927;SDS011;59882;45.624;11.698;2023-02-28T06:52:21;12.30;;;7.23;;
66927;SDS011;59882;45.624;11.698;2023-02-28T06:54:47;12.05;;;6.82;;
66927;SDS011;59882;45.624;11.698;2023-02-28T06:57:24;13.33;;;6.00;;
66927;SDS011;59882;45.624;11.698;2023-02-28T06:59:59;13.18;;;6.15;;
66927;SDS011;59882;45.624;11.698;2023-02-28T07:02:26;11.32;;;5.93;;
66927;SDS011;59882;45.624;11.698;2023-02-28T07:04:52;14.23;;;6.60;;
66927;SDS011;59882;45.624;11.698;2023-02-28T07:07:18;11.87;;;6.57;;
66927;SDS011;59882;45.624;11.698;2023-02-28T07:09:43;13.93;;;6.95;;
66927;SDS011;59882;45.624;11.698;2023-02-28T07:12:09;12.43;;;6.93;;
66927;SDS011;59882;45.624;11.698;2023-02-28T07:14:36;12.55;;;7.45;;
66927;SDS011;59882;45.624;11.698;2023-02-28T07:17:01;13.77;;;8.17;;
66927;SDS011;59882;45.624;11.698;2023-02-28T07:19:27;11.45;;;6.45;;
66927;SDS011;59882;45.624;11.698;2023-02-28T07:21:53;13.37;;;6.57;;
66927;SDS011;59882;45.624;11.698;2023-02-28T07:24:18;13.18;;;7.03;;
66927;SDS011;59882;45.624;11.698;2023-02-28T07:26:44;11.13;;;6.97;;
66927;SDS011;59882;45.624;11.698;2023-02-28T07:29:10;13.50;;;7.07;;
66927;SDS011;59882;45.624;11.698;2023-02-28T07:31:36;14.33;;;6.23;;
66927;SDS011;59882;45.624;11.698;2023-02-28T07:34:01;14.30;;;7.35;;
66927;SDS011;59882;45.624;11.698;2023-02-28T07:36:28;11.52;;;6.00;;
66927;SDS011;59882;45.624;11.698;2023-02-28T07:38:53;14.87;;;6.70;;
66927;SDS011;59882;45.624;11.698;2023-02-28T07:41:21;14.23;;;6.35;;
66927;SDS011;59882;45.624;11.698;2023-02-28T07:43:48;14.80;;;6.93;;
66927;SDS011;59882;45.624;11.698;2023-02-28T07:46:14;14.20;;;6.43;;
66927;SDS011;59882;45.624;11.698;2023-02-28T07:48:41;11.95;;;6.43;;
66927;SDS011;59882;45.624;11.698;2023-02-28T07:51:08;12.82;;;6.43;;
66927;SDS011;59882;45.624;11.698;2023-02-28T07:53:34;14.80;;;7.15;;
66927;SDS011;59882;45.624;11.698;2023-02-28T07:56:00;15.23;;;7.10;;
66927;SDS011;59882;45.624;11.698;2023-02-28T07:58:27;12.07;;;6.20;;
66927;SDS011;59882;45.624;11.698;2023-02-28T08:00:54;10.77;;;6.10;;
66927;SDS011;59882;45.624;11.698;2023-02-28T08:03:20;13.47;;;6.83;;
66927;SDS011;59882;45.624;11.698;2023-02-28T08:05:47;11.75;;;6.03;;
66927;SDS011;59882;45.624;11.698;2023-02-28T08:08:13;11.32;;;6.15;;
66927;SDS011;59882;45.624;11.698;2023-02-28T08:10:40;12.95;;;6.78;;
66927;SDS011;59882;45.624;11.698;2023-02-28T08:13:06;14.13;;;6.47;;
66927;SDS011;59882;45.624;11.698;2023-02-28T08:15:32;13.27;;;6.93;;
66927;SDS011;59882;45.624;11.698;2023-02-28T08:17:58;14.90;;;6.45;;
66927;SDS011;59882;45.624;11.698;2023-02-28T08:20:24;15.13;;;7.00;;
66927;SDS011;59882;45.624;11.698;2023-02-28T08:22:50;14.13;;;7.25;;
66927;SDS011;59882;45.624;11.698;2023-02-28T08:25:16;13.73;;;7.25;;
66927;SDS011;59882;45.624;11.698;2023-02-28T08:27:42;17.77;;;7.03;;
66927;SDS011;59882;45.624;11.698;2023-02-28T08:30:11;15.65;;;7.05;;
66927;SDS011;59882;45.624;11.698;2023-02-28T08:32:38;11.77;;;6.25;;
66927;SDS011;59882;45.624;11.698;2023-02-28T08:35:05;13.10;;;6.07;;
66927;SDS011;59882;45.624;11.698;2023-02-28T08:37:31;13.35;;;6.35;;
66927;SDS011;59882;45.624;11.698;2023-02-28T08:39:57;12.32;;;6.22;;
66927;SDS011;59882;45.624;11.698;2023-02-28T08:42:23;13.07;;;6.43;;
66927;SDS011;59882;45.624;11.698;2023-02-28T08:44:49;14.00;;;6.32;;
66927;SDS011;59882;45.624;11.698;2023-02-28T08:47:14;15.87;;;6.40;;
66927;SDS011;59882;45.624;11.698;2023-02-28T08:49:40;12.90;;;6.50;;
66927;SDS011;59882;45.624;11.698;2023-02-28T08:52:06;13.97;;;6.97;;
66927;SDS011;59882;45.624;11.698;2023-02-28T08:54:32;10.85;;;5.68;;
66927;SDS011;59882;45.624;11.698;2023-02-28T08:56:58;13.63;;;6.57;;
66927;SDS011;59882;45.624;11.698;2023-02-28T08:59:24;11.93;;;6.07;;
66927;SDS011;59882;45.624;11.698;2023-02-28T09:01:50;16.60;;;7.30;;
66927;SDS011;59882;45.624;11.698;2023-02-28T09:04:15;15.13;;;6.93;;
66927;SDS011;59882;45.624;11.698;2023-02-28T09:06:41;12.67;;;6.33;;
66927;SDS011;59882;45.624;11.698;2023-02-28T09:09:07;16.13;;;7.47;;
66927;SDS011;59882;45.624;11.698;2023-02-28T09:11:34;11.45;;;6.03;;
66927;SDS011;59882;45.624;11.698;2023-02-28T09:14:00;13.48;;;6.18;;
66927;SDS011;59882;45.624;11.698;2023-02-28T09:16:28;11.00;;;5.50;;
66927;SDS011;59882;45.624;11.698;2023-02-28T09:18:55;13.05;;;6.10;;
66927;SDS011;59882;45.624;11.698;2023-02-28T09:21:22;12.05;;;6.00;;
66927;SDS011;59882;45.624;11.698;2023-02-28T09:23:48;13.20;;;6.18;;
66927;SDS011;59882;45.624;11.698;2023-02-28T09:26:16;14.30;;;6.32;;
66927;SDS011;59882;45.624;11.698;2023-02-28T09:28:43;12.63;;;6.20;;
66927;SDS011;59882;45.624;11.698;2023-02-28T09:31:13;12.48;;;5.80;;
66927;SDS011;59882;45.624;11.698;2023-02-28T09:33:40;12.30;;;6.32;;
66927;SDS011;59882;45.624;11.698;2023-02-28T09:36:06;12.07;;;5.57;;
66927;SDS011;59882;45.624;11.698;2023-02-28T09:38:32;10.32;;;6.22;;
66927;SDS011;59882;45.624;11.698;2023-02-28T09:40:58;12.07;;;6.70;;
66927;SDS011;59882;45.624;11.698;2023-02-28T09:43:34;14.50;;;6.30;;
66927;SDS011;59882;45.624;11.698;2023-02-28T09:46:06;12.02;;;6.40;;
66927;SDS011;59882;45.624;11.698;2023-02-28T09:49:07;11.80;;;5.50;;
66927;SDS011;59882;45.624;11.698;2023-02-28T09:54:15;12.83;;;6.40;;
66927;SDS011;59882;45.624;11.698;2023-02-28T09:56:44;17.45;;;6.47;;
66927;SDS011;59882;45.624;11.698;2023-02-28T10:04:54;11.30;;;5.43;;
66927;SDS011;59882;45.624;11.698;2023-02-28T10:07:46;10.83;;;5.47;;
66927;SDS011;59882;45.624;11.698;2023-02-28T10:10:31;11.20;;;5.57;;
66927;SDS011;59882;45.624;11.698;2023-02-28T10:13:06;12.85;;;6.18;;
66927;SDS011;59882;45.624;11.698;2023-02-28T10:15:47;12.80;;;5.72;;
66927;SDS011;59882;45.624;11.698;2023-02-28T10:18:20;12.68;;;6.05;;
66927;SDS011;59882;45.624;11.698;2023-02-28T10:20:49;9.67;;;4.87;;
66927;SDS011;59882;45.624;11.698;2023-02-28T10:23:25;11.30;;;5.85;;
66927;SDS011;59882;45.624;11.698;2023-02-28T10:26:08;12.43;;;6.50;;
66927;SDS011;59882;45.624;11.698;2023-02-28T10:28:35;11.80;;;6.78;;
66927;SDS011;59882;45.624;11.698;2023-02-28T10:31:01;12.23;;;6.20;;
66927;SDS011;59882;45.624;11.698;2023-02-28T10:33:29;14.63;;;7.57;;
66927;SDS011;59882;45.624;11.698;2023-02-28T10:35:57;17.60;;;6.63;;
66927;SDS011;59882;45.624;11.698;2023-02-28T10:38:24;10.93;;;6.27;;
66927;SDS011;59882;45.624;11.698;2023-02-28T10:40:52;15.15;;;6.80;;
66927;SDS011;59882;45.624;11.698;2023-02-28T10:43:48;13.48;;;6.63;;
66927;SDS011;59882;45.624;11.698;2023-02-28T10:46:15;15.03;;;7.43;;
66927;SDS011;59882;45.624;11.698;2023-02-28T10:48:57;15.52;;;6.80;;
66927;SDS011;59882;45.624;11.698;2023-02-28T10:51:39;16.35;;;7.10;;
66927;SDS011;59882;45.624;11.698;2023-02-28T10:54:06;13.82;;;6.82;;
66927;SDS011;59882;45.624;11.698;2023-02-28T10:56:41;11.85;;;6.32;;
66927;SDS011;59882;45.624;11.698;2023-02-28T11:01:47;11.95;;;6.00;;
66927;SDS011;59882;45.624;11.698;2023-02-28T11:09:48;11.27;;;5.70;;
66927;SDS011;59882;45.624;11.698;2023-02-28T11:12:38;12.27;;;5.97;;
66927;SDS011;59882;45.624;11.698;2023-02-28T11:15:07;10.65;;;6.13;;
66927;SDS011;59882;45.624;11.698;2023-02-28T11:17:56;11.35;;;5.97;;
66927;SDS011;59882;45.624;11.698;2023-02-28T11:20:25;10.23;;;6.00;;
66927;SDS011;59882;45.624;11.698;2023-02-28T11:22:54;13.60;;;5.87;;
66927;SDS011;59882;45.624;11.698;2023-02-28T11:25:26;15.18;;;6.70;;
66927;SDS011;59882;45.624;11.698;2023-02-28T11:27:57;13.48;;;6.30;;
66927;SDS011;59882;45.624;11.698;2023-02-28T11:30:36;12.63;;;5.85;;
66927;SDS011;59882;45.624;11.698;2023-02-28T11:35:49;13.67;;;6.27;;
66927;SDS011;59882;45.624;11.698;2023-02-28T11:38:15;13.77;;;6.50;;
66927;SDS011;59882;45.624;11.698;2023-02-28T11:48:22;13.03;;;6.40;;
66927;SDS011;59882;45.624;11.698;2023-02-28T12:01:36;11.30;;;6.03;;
66927;SDS011;59882;45.624;11.698;2023-02-28T12:04:34;11.38;;;6.03;;
66927;SDS011;59882;45.624;11.698;2023-02-28T12:12:56;12.73;;;6.40;;
66927;SDS011;59882;45.624;11.698;2023-02-28T12:15:43;14.25;;;7.53;;
66927;SDS011;59882;45.624;11.698;2023-02-28T12:27:09;13.25;;;6.85;;
66927;SDS011;59882;45.624;11.698;2023-02-28T12:32:24;15.02;;;6.53;;
66927;SDS011;59882;45.624;11.698;2023-02-28T12:34:57;10.43;;;6.25;;
66927;SDS011;59882;45.624;11.698;2023-02-28T12:40:22;10.75;;;5.50;;
66927;SDS011;59882;45.624;11.698;2023-02-28T12:42:57;9.27;;;5.43;;
66927;SDS011;59882;45.624;11.698;2023-02-28T12:45:34;9.52;;;5.78;;
66927;SDS011;59882;45.624;11.698;2023-02-28T12:48:06;11.00;;;6.63;;
66927;SDS011;59882;45.624;11.698;2023-02-28T12:50:35;10.80;;;6.30;;
66927;SDS011;59882;45.624;11.698;2023-02-28T12:53:21;10.13;;;6.47;;
66927;SDS011;59882;45.624;11.698;2023-02-28T13:06:30;11.80;;;6.38;;
66927;SDS011;59882;45.624;11.698;2023-02-28T13:11:44;11.07;;;7.65;;
66927;SDS011;59882;45.624;11.698;2023-02-28T13:17:02;11.13;;;6.90;;
66927;SDS011;59882;45.624;11.698;2023-02-28T13:24:51;11.40;;;7.35;;
66927;SDS011;59882;45.624;11.698;2023-02-28T13:30:00;10.43;;;6.93;;
66927;SDS011;59882;45.624;11.698;2023-02-28T13:32:46;9.10;;;7.03;;
66927;SDS011;59882;45.624;11.698;2023-02-28T13:38:43;11.70;;;6.68;;
66927;SDS011;59882;45.624;11.698;2023-02-28T13:44:09;8.80;;;6.33;;
66927;SDS011;59882;45.624;11.698;2023-02-28T13:51:55;10.87;;;6.67;;
66927;SDS011;59882;45.624;11.698;2023-02-28T13:59:28;8.40;;;6.18;;
66927;SDS011;59882;45.624;11.698;2023-02-28T14:02:01;9.90;;;7.30;;
66927;SDS011;59882;45.624;11.698;2023-02-28T14:04:59;9.63;;;7.22;;
66927;SDS011;59882;45.624;11.698;2023-02-28T14:07:27;10.00;;;6.70;;
66927;SDS011;59882;45.624;11.698;2023-02-28T14:10:01;9.38;;;6.43;;
66927;SDS011;59882;45.624;11.698;2023-02-28T14:18:22;9.32;;;6.20;;
66927;SDS011;59882;45.624;11.698;2023-02-28T14:20:52;9.95;;;6.80;;
66927;SDS011;59882;45.624;11.698;2023-02-28T14:26:35;10.05;;;7.20;;
66927;SDS011;59882;45.624;11.698;2023-02-28T14:31:58;9.13;;;7.13;;
66927;SDS011;59882;45.624;11.698;2023-02-28T14:34:50;9.20;;;6.57;;
66927;SDS011;59882;45.624;11.698;2023-02-28T14:37:29;9.77;;;6.80;;
66927;SDS011;59882;45.624;11.698;2023-02-28T14:39:58;14.88;;;6.57;;
66927;SDS011;59882;45.624;11.698;2023-02-28T14:45:02;11.20;;;6.47;;
66927;SDS011;59882;45.624;11.698;2023-02-28T14:47:32;10.70;;;7.38;;
66927;SDS011;59882;45.624;11.698;2023-02-28T14:50:00;11.20;;;7.00;;
66927;SDS011;59882;45.624;11.698;2023-02-28T14:52:29;10.18;;;6.40;;
66927;SDS011;59882;45.624;11.698;2023-02-28T14:54:58;10.60;;;7.50;;
66927;SDS011;59882;45.624;11.698;2023-02-28T14:57:27;9.73;;;6.50;;
66927;SDS011;59882;45.624;11.698;2023-02-28T14:59:58;14.07;;;9.45;;
66927;SDS011;59882;45.624;11.698;2023-02-28T15:02:25;10.57;;;6.63;;
66927;SDS011;59882;45.624;11.698;2023-02-28T15:05:01;9.95;;;6.22;;
66927;SDS011;59882;45.624;11.698;2023-02-28T15:07:41;9.23;;;5.70;;
66927;SDS011;59882;45.624;11.698;2023-02-28T15:12:45;10.55;;;7.75;;
66927;SDS011;59882;45.624;11.698;2023-02-28T15:15:19;13.63;;;7.35;;
66927;SDS011;59882;45.624;11.698;2023-02-28T15:17:46;12.77;;;6.88;;
66927;SDS011;59882;45.624;11.698;2023-02-28T15:20:16;13.50;;;7.73;;
66927;SDS011;59882;45.624;11.698;2023-02-28T15:22:43;11.25;;;6.55;;
66927;SDS011;59882;45.624;11.698;2023-02-28T15:25:11;14.77;;;7.60;;
66927;SDS011;59882;45.624;11.698;2023-02-28T15:27:45;13.32;;;7.10;;
66927;SDS011;59882;45.624;11.698;2023-02-28T15:30:21;11.07;;;6.70;;
66927;SDS011;59882;45.624;11.698;2023-02-28T15:35:49;12.27;;;6.20;;
66927;SDS011;59882;45.624;11.698;2023-02-28T15:38:22;11.40;;;5.93;;
66927;SDS011;59882;45.624;11.698;2023-02-28T15:40:53;11.23;;;5.97;;
66927;SDS011;59882;45.624;11.698;2023-02-28T15:45:49;11.73;;;6.50;;
66927;SDS011;59882;45.624;11.698;2023-02-28T15:48:27;11.15;;;5.93;;
66927;SDS011;59882;45.624;11.698;2023-02-28T15:51:36;13.75;;;7.07;;
66927;SDS011;59882;45.624;11.698;2023-02-28T15:59:18;12.00;;;7.60;;
66927;SDS011;59882;45.624;11.698;2023-02-28T16:01:46;10.30;;;6.47;;
66927;SDS011;59882;45.624;11.698;2023-02-28T16:04:16;9.63;;;5.15;;
66927;SDS011;59882;45.624;11.698;2023-02-28T16:09:14;11.73;;;6.20;;
66927;SDS011;59882;45.624;11.698;2023-02-28T16:11:48;12.75;;;7.05;;
66927;SDS011;59882;45.624;11.698;2023-02-28T16:14:16;15.77;;;6.53;;
66927;SDS011;59882;45.624;11.698;2023-02-28T16:16:45;12.80;;;7.00;;
66927;SDS011;59882;45.624;11.698;2023-02-28T16:19:14;16.83;;;8.07;;
66927;SDS011;59882;45.624;11.698;2023-02-28T16:21:39;15.37;;;7.40;;
66927;SDS011;59882;45.624;11.698;2023-02-28T16:24:05;12.07;;;6.35;;
66927;SDS011;59882;45.624;11.698;2023-02-28T16:26:31;12.15;;;6.82;;
66927;SDS011;59882;45.624;11.698;2023-02-28T16:28:59;11.83;;;6.73;;
66927;SDS011;59882;45.624;11.698;2023-02-28T16:31:26;12.63;;;7.38;;
66927;SDS011;59882;45.624;11.698;2023-02-28T16:33:53;11.57;;;7.38;;
66927;SDS011;59882;45.624;11.698;2023-02-28T16:36:20;12.35;;;6.72;;
66927;SDS011;59882;45.624;11.698;2023-02-28T16:38:48;12.27;;;7.72;;
66927;SDS011;59882;45.624;11.698;2023-02-28T16:41:22;17.93;;;9.60;;
66927;SDS011;59882;45.624;11.698;2023-02-28T16:43:53;20.80;;;9.57;;
66927;SDS011;59882;45.624;11.698;2023-02-28T16:46:24;25.23;;;12.30;;
66927;SDS011;59882;45.624;11.698;2023-02-28T16:48:52;23.13;;;11.75;;
66927;SDS011;59882;45.624;11.698;2023-02-28T16:51:18;25.67;;;10.37;;
66927;SDS011;59882;45.624;11.698;2023-02-28T16:53:44;21.27;;;10.90;;
66927;SDS011;59882;45.624;11.698;2023-02-28T16:56:13;24.70;;;12.07;;
66927;SDS011;59882;45.624;11.698;2023-02-28T16:58:44;24.67;;;13.15;;
66927;SDS011;59882;45.624;11.698;2023-02-28T17:01:10;21.80;;;10.30;;
66927;SDS011;59882;45.624;11.698;2023-02-28T17:03:35;17.67;;;9.67;;
66927;SDS011;59882;45.624;11.698;2023-02-28T17:06:02;19.65;;;10.00;;
66927;SDS011;59882;45.624;11.698;2023-02-28T17:08:28;22.63;;;10.32;;
66927;SDS011;59882;45.624;11.698;2023-02-28T17:10:54;16.85;;;9.68;;
66927;SDS011;59882;45.624;11.698;2023-02-28T17:13:20;16.97;;;10.03;;
66927;SDS011;59882;45.624;11.698;2023-02-28T17:15:46;20.40;;;10.40;;
66927;SDS011;59882;45.624;11.698;2023-02-28T17:18:16;24.25;;;11.23;;
66927;SDS011;59882;45.624;11.698;2023-02-28T17:20:49;20.90;;;10.77;;
66927;SDS011;59882;45.624;11.698;2023-02-28T17:23:14;20.95;;;10.50;;
66927;SDS011;59882;45.624;11.698;2023-02-28T17:25:40;23.15;;;9.90;;